Edwards Air Force Base Edwards US
ICAO: KEDW
IATA: EDW
Category: Large
Scheduled Services: No

Elevation: 2312 ft
TransAlt. 18000 ft.

Airport Communications:
SPORT APP/DEP:132.75
ATIS:26.99
GND:121.8
NASA FLT OPS:135.825
PMSV METRO:34.24
COMD POST:30.4
PTD:37.22
TWR:120.7

KEDW Zoom In..

If you have problems with the map follow the link
https://www.worldairports.se/pages/airport.php?
ICAO=KEDW

Runways:

(A) RW 04L length 12000 ft width 200 ft
---- / hdg 43

(B) RW 04R length 15024 ft width 300 ft
---- / hdg 43

(C) RW 22L length 15024 ft width 300 ft
ILS 110.10 / hdg 223

(D) RW 22R length 12000 ft width 200 ft
---- / hdg 223

Location; KEDW
Day. 20 / Time. 20.58 Zulu
* Altimeter: 29.74
* Temperature: 09° c. 48.2°f.
* Wind from: 240° Speed 27 kn with Gusts up to 36 kn.
Dewpoint: -01° c.
Visibility: 50 Statute Miles.
Clouds: Broken 3000 ft.
Clouds: Broken 8000 ft.
Clouds: Broken 25000 ft.

KEDW 202058Z 24027G36KT 50SM VCBLSA BKN030 BKN080 BKN250 09/M01 A2974 RMK AO2A VIS LWR NE SLP078 ACSL NW T00941011 57033


Wind From 240°
Speed 27 kn.

 
 
jpsmedia.com for Web Design worldairports.se 2019   terms of use